Time;durP1;ratioP1;P1;durP2;ratioP2;P2;SDS_P1;SDS_P2;PMS_P1;PMS_P2;Temp;Humidity;BMP_temperature;BMP_pressure;BME280_temperature;BME280_humidity;BME280_pressure;Samples;Min_cycle;Max_cycle;Signal;HPM_P1;HPM_P2
2022/07/13 00:02:22;;;;;;;5.32;4.80;;;20.20;99.90;;;;;;5010361;28;20072;-74
2022/07/13 00:04:47;;;;;;;5.85;5.25;;;20.10;99.90;;;;;;5011336;28;20416;-75
2022/07/13 00:07:13;;;;;;;8.50;4.30;;;19.90;99.90;;;;;;5011193;28;20053;-74
2022/07/13 00:09:39;;;;;;;5.07;4.15;;;20.00;99.90;;;;;;5010956;28;20057;-74
2022/07/13 00:12:04;;;;;;;6.20;4.55;;;20.00;99.90;;;;;;5011379;28;20038;-75
2022/07/13 00:14:30;;;;;;;5.88;4.85;;;19.90;99.90;;;;;;5011377;28;20092;-74
2022/07/13 00:16:56;;;;;;;6.60;4.57;;;19.90;99.90;;;;;;5011057;28;20557;-74
2022/07/13 00:19:21;;;;;;;5.70;4.78;;;20.00;99.90;;;;;;5011089;28;20048;-75
2022/07/13 00:21:47;;;;;;;6.85;4.40;;;19.80;99.90;;;;;;5010934;28;20101;-75
2022/07/13 00:24:14;;;;;;;4.95;3.72;;;19.80;99.90;;;;;;5011032;28;20487;-75
2022/07/13 00:26:39;;;;;;;5.63;4.30;;;19.80;99.90;;;;;;4994650;28;20065;-74
2022/07/13 00:29:05;;;;;;;4.80;4.18;;;20.00;99.90;;;;;;5010970;28;20599;-74
2022/07/13 00:31:31;;;;;;;7.10;4.30;;;20.00;99.90;;;;;;5010635;28;20042;-75
2022/07/13 00:33:57;;;;;;;5.53;3.75;;;19.80;99.90;;;;;;5010909;28;20088;-75
2022/07/13 00:36:22;;;;;;;4.97;3.95;;;19.90;99.90;;;;;;5011142;28;20045;-74
2022/07/13 00:38:48;;;;;;;4.47;4.07;;;19.80;99.90;;;;;;5010874;28;20122;-74
2022/07/13 00:41:14;;;;;;;5.20;4.00;;;19.90;99.90;;;;;;5010411;28;20050;-74
2022/07/13 00:43:39;;;;;;;4.40;4.00;;;20.00;99.90;;;;;;5010815;28;20073;-75
2022/07/13 00:46:05;;;;;;;3.83;3.40;;;19.80;99.90;;;;;;5010770;28;20510;-74
2022/07/13 00:48:31;;;;;;;6.72;3.90;;;20.00;99.90;;;;;;5010749;28;20050;-75
2022/07/13 00:50:56;;;;;;;4.20;3.80;;;19.80;99.90;;;;;;5010333;28;20042;-74
2022/07/13 00:53:23;;;;;;;3.90;3.50;;;19.80;99.90;;;;;;5010772;28;20052;-74
2022/07/13 00:55:49;;;;;;;7.38;3.85;;;19.90;99.90;;;;;;5012099;28;20037;-74
2022/07/13 00:58:15;;;;;;;5.32;4.03;;;19.90;99.90;;;;;;5011967;28;20034;-74
2022/07/13 01:00:41;;;;;;;6.63;4.40;;;19.80;99.90;;;;;;5010353;28;20038;-74
2022/07/13 01:03:06;;;;;;;4.60;4.20;;;20.00;99.90;;;;;;5010477;28;20045;-75
2022/07/13 01:05:32;;;;;;;7.40;5.05;;;19.90;99.90;;;;;;5010648;28;20106;-74
2022/07/13 01:07:57;;;;;;;6.28;4.25;;;19.80;99.90;;;;;;5010604;28;20454;-74
2022/07/13 01:10:24;;;;;;;5.45;4.63;;;20.00;99.90;;;;;;5011575;28;20042;-74
2022/07/13 01:12:50;;;;;;;4.53;4.10;;;19.80;99.90;;;;;;5012457;28;20088;-74
2022/07/13 01:15:16;;;;;;;5.10;4.60;;;19.80;99.90;;;;;;5014325;28;20050;-75
2022/07/13 01:17:42;;;;;;;5.65;5.00;;;19.80;99.90;;;;;;5014480;28;20038;-74
2022/07/13 01:20:09;;;;;;;5.53;4.82;;;20.00;99.90;;;;;;5015454;28;20041;-75
2022/07/13 01:22:40;;;;;;;6.53;4.43;;;19.80;99.90;;;;;;5014117;28;20038;-75
2022/07/13 01:25:07;;;;;;;6.65;5.07;;;19.80;99.90;;;;;;5015598;28;20049;-74
2022/07/13 01:27:35;;;;;;;6.13;4.70;;;20.00;99.90;;;;;;5015416;28;20100;-74
2022/07/13 01:30:01;;;;;;;5.43;4.55;;;19.80;99.90;;;;;;5015035;28;20038;-75
2022/07/13 01:32:26;;;;;;;6.53;4.50;;;20.00;99.90;;;;;;5014069;28;20038;-74
2022/07/13 01:34:52;;;;;;;5.32;4.82;;;20.00;99.90;;;;;;5013958;28;20068;-74
2022/07/13 01:37:18;;;;;;;6.53;4.88;;;19.80;99.90;;;;;;5014044;28;20050;-74
2022/07/13 01:39:44;;;;;;;7.25;5.95;;;19.90;99.90;;;;;;5013707;28;20077;-75
2022/07/13 01:42:10;;;;;;;9.30;5.53;;;19.90;99.90;;;;;;5013815;28;20046;-75
2022/07/13 01:44:35;;;;;;;7.45;5.25;;;19.70;99.90;;;;;;5015069;28;20113;-74
2022/07/13 01:47:08;;;;;;;7.47;5.13;;;19.80;99.90;;;;;;5015324;28;20033;-74
2022/07/13 01:49:34;;;;;;;6.90;5.07;;;19.80;99.90;;;;;;5013740;28;20427;-74
2022/07/13 01:52:00;;;;;;;5.40;4.90;;;19.90;99.90;;;;;;5013937;28;20051;-74
2022/07/13 01:54:25;;;;;;;7.63;5.85;;;19.90;99.90;;;;;;5013707;28;20092;-74
2022/07/13 01:56:51;;;;;;;6.75;5.57;;;19.70;99.90;;;;;;5013808;28;20134;-74
2022/07/13 01:59:16;;;;;;;6.55;5.28;;;19.90;99.90;;;;;;5013260;28;20173;-74
2022/07/13 02:01:42;;;;;;;10.15;6.22;;;19.90;99.90;;;;;;5013385;28;20074;-74
2022/07/13 02:04:08;;;;;;;6.30;5.47;;;19.90;99.90;;;;;;5013552;28;20034;-74
2022/07/13 02:06:34;;;;;;;8.27;5.63;;;19.80;99.90;;;;;;5013706;28;20543;-74
2022/07/13 02:08:59;;;;;;;12.68;7.20;;;19.70;99.90;;;;;;5013392;28;20175;-75
2022/07/13 02:11:25;;;;;;;8.80;6.25;;;19.70;99.90;;;;;;5013076;28;20130;-75
2022/07/13 02:13:50;;;;;;;6.80;6.10;;;19.90;99.90;;;;;;5013231;28;20057;-74
2022/07/13 02:16:17;;;;;;;6.90;6.15;;;19.80;99.90;;;;;;5013286;28;20126;-75
2022/07/13 02:18:43;;;;;;;6.85;5.93;;;19.80;99.90;;;;;;5013187;28;20046;-75
2022/07/13 02:21:09;;;;;;;8.88;7.45;;;19.90;99.90;;;;;;5012918;28;20124;-75
2022/07/13 02:23:34;;;;;;;7.95;7.25;;;19.80;99.90;;;;;;5013122;28;20038;-75
2022/07/13 02:26:00;;;;;;;8.63;7.38;;;19.80;99.90;;;;;;5012254;28;20422;-75
2022/07/13 02:28:26;;;;;;;9.00;7.60;;;19.90;99.90;;;;;;5013067;28;20037;-75
2022/07/13 02:30:51;;;;;;;8.13;7.32;;;19.70;99.90;;;;;;4996611;28;20036;-74
2022/07/13 02:33:17;;;;;;;8.85;6.97;;;19.80;99.90;;;;;;5013228;28;20065;-74
2022/07/13 02:35:42;;;;;;;10.45;7.28;;;19.80;99.90;;;;;;5012870;28;20056;-74
2022/07/13 02:38:08;;;;;;;10.55;7.43;;;19.70;99.90;;;;;;5012888;28;20038;-74
2022/07/13 02:40:33;;;;;;;8.43;7.47;;;19.70;99.90;;;;;;5012551;28;20392;-75
2022/07/13 02:42:59;;;;;;;9.68;7.78;;;19.70;99.90;;;;;;5012627;28;20443;-75
2022/07/13 02:45:25;;;;;;;10.63;7.85;;;19.70;99.90;;;;;;5014202;28;20038;-74
2022/07/13 02:47:50;;;;;;;10.63;7.43;;;19.70;99.90;;;;;;5012658;28;20050;-74
2022/07/13 02:50:16;;;;;;;7.80;7.05;;;19.70;99.90;;;;;;5012346;28;20038;-74
2022/07/13 02:52:42;;;;;;;8.45;7.47;;;19.70;99.90;;;;;;5013889;28;20045;-74
2022/07/13 02:55:08;;;;;;;9.25;6.65;;;19.80;99.90;;;;;;5013874;28;20117;-74
2022/07/13 02:57:33;;;;;;;7.88;7.07;;;19.70;99.90;;;;;;5013651;28;20042;-75
2022/07/13 02:59:59;;;;;;;9.85;7.55;;;19.90;99.90;;;;;;5012455;28;20045;-74
2022/07/13 03:02:24;;;;;;;10.13;7.75;;;19.80;99.90;;;;;;5012296;28;20046;-75
2022/07/13 03:04:50;;;;;;;10.80;7.75;;;20.00;99.90;;;;;;5012635;28;20046;-75
2022/07/13 03:07:16;;;;;;;7.75;6.90;;;20.00;99.90;;;;;;5012369;28;20077;-75
2022/07/13 03:09:42;;;;;;;7.32;6.60;;;19.90;99.90;;;;;;5013222;28;20407;-74
2022/07/13 03:12:07;;;;;;;7.95;7.00;;;20.00;99.90;;;;;;5012096;28;20045;-74
2022/07/13 03:14:33;;;;;;;8.25;6.95;;;20.00;99.90;;;;;;5012400;28;20045;-75
2022/07/13 03:16:58;;;;;;;12.50;7.80;;;20.00;99.90;;;;;;5012118;28;20136;-75
2022/07/13 03:19:24;;;;;;;8.45;6.38;;;19.90;99.90;;;;;;5011806;28;20084;-74
2022/07/13 03:21:50;;;;;;;10.07;7.13;;;19.90;99.90;;;;;;5011979;28;20661;-75
2022/07/13 03:24:15;;;;;;;7.18;6.32;;;20.00;99.90;;;;;;5013342;28;20121;-75
2022/07/13 03:26:41;;;;;;;11.10;7.38;;;19.90;99.90;;;;;;5011785;28;20050;-74
2022/07/13 03:29:06;;;;;;;7.95;6.53;;;19.90;99.90;;;;;;5012108;28;20092;-75
2022/07/13 03:31:32;;;;;;;8.10;6.60;;;19.90;99.90;;;;;;5011566;28;20125;-75
2022/07/13 03:33:58;;;;;;;9.80;6.43;;;20.00;99.90;;;;;;5012049;28;20053;-75
2022/07/13 03:36:23;;;;;;;8.20;6.28;;;20.10;99.90;;;;;;5012927;28;20037;-75
2022/07/13 03:38:49;;;;;;;7.47;6.25;;;20.00;99.90;;;;;;5013075;28;20046;-75
2022/07/13 03:41:14;;;;;;;6.22;5.68;;;20.10;99.90;;;;;;5011479;28;20137;-74
2022/07/13 03:43:40;;;;;;;6.22;5.63;;;20.00;99.90;;;;;;5012022;28;20038;-74
2022/07/13 03:46:06;;;;;;;8.40;6.22;;;20.00;99.90;;;;;;5011462;28;20132;-75
2022/07/13 03:48:31;;;;;;;7.55;6.43;;;20.10;99.90;;;;;;5011256;28;20042;-74
2022/07/13 03:50:57;;;;;;;6.93;6.15;;;20.10;99.90;;;;;;4994767;28;20042;-75
2022/07/13 03:53:22;;;;;;;6.72;5.97;;;20.10;99.90;;;;;;5012776;28;20037;-75
2022/07/13 03:55:48;;;;;;;6.53;5.55;;;20.10;99.90;;;;;;5012378;28;20088;-74
2022/07/13 03:58:14;;;;;;;6.70;6.00;;;19.90;99.90;;;;;;5011431;28;20052;-74
2022/07/13 04:00:39;;;;;;;6.63;5.93;;;20.20;99.90;;;;;;5012564;28;20038;-74
2022/07/13 04:03:05;;;;;;;8.35;6.65;;;20.00;99.90;;;;;;5011083;28;20038;-75
2022/07/13 04:05:30;;;;;;;8.38;6.45;;;20.10;99.90;;;;;;5011255;28;20088;-75
2022/07/13 04:07:56;;;;;;;7.00;6.22;;;20.00;99.90;;;;;;5010960;28;20038;-75
2022/07/13 04:10:22;;;;;;;6.53;5.82;;;19.90;99.90;;;;;;5012044;28;20048;-75
2022/07/13 04:12:49;;;;;;;7.25;6.03;;;20.00;99.90;;;;;;5010842;28;20137;-74
2022/07/13 04:15:15;;;;;;;8.90;6.55;;;20.20;99.90;;;;;;5012214;28;20504;-75
2022/07/13 04:17:42;;;;;;;7.28;6.57;;;20.10;99.90;;;;;;5008934;28;20076;-75
2022/07/13 04:20:09;;;;;;;6.47;5.80;;;20.00;99.90;;;;;;5019304;28;20388;-75
2022/07/13 04:22:35;;;;;;;7.25;5.85;;;20.10;99.90;;;;;;5046982;28;20037;-75
2022/07/13 04:25:01;;;;;;;6.47;5.55;;;20.10;99.90;;;;;;5047471;28;20470;-75
2022/07/13 04:27:26;;;;;;;7.07;6.18;;;20.10;99.90;;;;;;5047571;28;20037;-75
2022/07/13 04:29:52;;;;;;;8.13;5.78;;;20.10;99.90;;;;;;5030366;28;20033;-75
2022/07/13 04:32:18;;;;;;;6.03;5.43;;;20.10;99.90;;;;;;5047182;28;20529;-75
2022/07/13 04:34:43;;;;;;;6.18;5.57;;;19.90;99.90;;;;;;5030687;28;20037;-75
2022/07/13 04:37:09;;;;;;;7.00;5.90;;;20.00;99.90;;;;;;5047234;28;20073;-75
2022/07/13 04:39:34;;;;;;;7.95;5.63;;;19.90;99.90;;;;;;5030486;28;20037;-75
2022/07/13 04:42:00;;;;;;;7.28;5.93;;;20.10;99.90;;;;;;5047088;28;20176;-75
2022/07/13 04:44:29;;;;;;;5.82;5.28;;;19.90;99.90;;;;;;5047088;28;20041;-75
2022/07/13 04:46:55;;;;;;;9.27;5.85;;;20.00;99.90;;;;;;5047256;28;20048;-75
2022/07/13 04:49:22;;;;;;;5.57;4.90;;;20.10;99.90;;;;;;5052872;28;20045;-75
2022/07/13 04:51:48;;;;;;;6.13;5.53;;;20.00;99.90;;;;;;5053617;28;20049;-75
2022/07/13 04:54:18;;;;;;;6.80;5.78;;;20.00;99.90;;;;;;5053891;28;20470;-75
2022/07/13 04:56:44;;;;;;;6.25;5.13;;;20.00;99.90;;;;;;5053891;28;20037;-75
2022/07/13 04:59:10;;;;;;;7.80;5.93;;;20.10;99.90;;;;;;5053787;28;20525;-75
2022/07/13 05:01:35;;;;;;;7.88;6.07;;;20.10;99.90;;;;;;5053384;28;20191;-75
2022/07/13 05:04:02;;;;;;;6.70;6.00;;;20.00;99.90;;;;;;5038241;28;20060;-75
2022/07/13 05:06:27;;;;;;;7.13;5.82;;;20.10;99.90;;;;;;5053502;28;20538;-75
2022/07/13 05:08:53;;;;;;;6.60;5.15;;;20.20;99.90;;;;;;5020413;28;20041;-75
2022/07/13 05:11:19;;;;;;;6.30;5.35;;;20.10;99.90;;;;;;5020062;28;20061;-75
2022/07/13 05:13:45;;;;;;;5.75;5.15;;;20.20;99.90;;;;;;5038271;28;20038;-75
2022/07/13 05:16:10;;;;;;;6.63;5.95;;;20.20;99.90;;;;;;5053437;28;20575;-75
2022/07/13 05:18:36;;;;;;;8.18;5.72;;;20.20;99.90;;;;;;5038040;28;20073;-75
2022/07/13 05:21:02;;;;;;;6.50;5.53;;;20.30;99.90;;;;;;5052868;28;20037;-75
2022/07/13 05:23:28;;;;;;;5.88;5.32;;;20.30;99.90;;;;;;5053531;28;20410;-75
2022/07/13 05:25:53;;;;;;;6.75;6.03;;;20.30;99.90;;;;;;5020270;28;20029;-74
2022/07/13 05:28:19;;;;;;;6.10;5.50;;;20.20;99.90;;;;;;5036921;28;20041;-74
2022/07/13 05:30:45;;;;;;;9.32;5.57;;;20.30;99.90;;;;;;5052969;28;20041;-74
2022/07/13 05:33:10;;;;;;;7.35;6.13;;;20.40;99.90;;;;;;5053460;28;20053;-74
2022/07/13 05:35:36;;;;;;;9.20;5.88;;;20.30;99.90;;;;;;5053554;28;20048;-74
2022/07/13 05:38:01;;;;;;;7.25;6.07;;;20.30;99.90;;;;;;5036589;28;20041;-74
2022/07/13 05:40:27;;;;;;;7.65;6.13;;;20.20;99.90;;;;;;5036540;28;20403;-74
2022/07/13 05:42:52;;;;;;;10.30;6.22;;;20.20;99.90;;;;;;5053185;28;20084;-74
2022/07/13 05:45:19;;;;;;;8.48;6.50;;;20.30;99.90;;;;;;5020015;28;20047;-74
2022/07/13 05:47:48;;;;;;;6.75;5.97;;;20.20;99.90;;;;;;5036749;28;20576;-74
2022/07/13 05:50:15;;;;;;;6.55;5.55;;;20.30;99.90;;;;;;5053054;28;20447;-74
2022/07/13 05:52:42;;;;;;;6.63;5.32;;;20.40;99.90;;;;;;5034656;28;20045;-74
2022/07/13 05:55:09;;;;;;;7.25;6.10;;;20.30;99.90;;;;;;5015772;28;20572;-74
2022/07/13 05:57:35;;;;;;;7.32;6.63;;;20.30;99.90;;;;;;5022231;28;20080;-74
2022/07/13 06:00:02;;;;;;;8.45;6.28;;;20.30;99.90;;;;;;5022742;28;20046;-74
2022/07/13 06:02:28;;;;;;;7.40;6.43;;;20.30;99.90;;;;;;5049796;28;20119;-74
2022/07/13 06:04:53;;;;;;;7.72;6.57;;;20.40;99.90;;;;;;5034363;28;20073;-73
2022/07/13 06:07:19;;;;;;;7.88;6.00;;;20.50;99.90;;;;;;5034594;28;20041;-74
2022/07/13 06:09:44;;;;;;;7.38;6.63;;;20.40;99.90;;;;;;5034283;28;20042;-74
2022/07/13 06:12:10;;;;;;;6.88;6.13;;;20.40;99.90;;;;;;5049678;28;20533;-73
2022/07/13 06:14:36;;;;;;;6.95;6.25;;;20.40;99.90;;;;;;5042445;28;20500;-73
2022/07/13 06:17:01;;;;;;;9.57;6.28;;;20.50;99.90;;;;;;5049833;28;20088;-74
2022/07/13 06:19:27;;;;;;;8.90;6.63;;;20.50;99.90;;;;;;5032620;28;20038;-73
2022/07/13 06:21:52;;;;;;;7.43;6.38;;;20.30;99.90;;;;;;5049318;28;20045;-73
2022/07/13 06:24:18;;;;;;;6.70;6.07;;;20.50;99.90;;;;;;5049592;28;20576;-73
2022/07/13 06:26:44;;;;;;;7.90;6.07;;;20.40;99.90;;;;;;5027676;28;20030;-73
2022/07/13 06:29:10;;;;;;;7.53;5.80;;;20.40;99.90;;;;;;5013787;28;20037;-73
2022/07/13 06:31:36;;;;;;;8.20;6.30;;;20.70;99.90;;;;;;5013505;28;20041;-73
2022/07/13 06:34:01;;;;;;;6.25;5.65;;;20.50;99.90;;;;;;5012920;28;20044;-73
2022/07/13 06:36:27;;;;;;;6.97;6.22;;;20.60;99.90;;;;;;5013017;28;20092;-73
2022/07/13 06:38:52;;;;;;;7.43;6.50;;;20.60;99.90;;;;;;5014227;28;20044;-73
2022/07/13 06:41:18;;;;;;;16.02;6.97;;;20.60;99.90;;;;;;5013791;28;20467;-73
2022/07/13 06:43:44;;;;;;;10.35;6.63;;;20.80;99.90;;;;;;5011357;28;20042;-73
2022/07/13 06:46:10;;;;;;;8.80;7.43;;;20.90;99.90;;;;;;5010000;28;20530;-73
2022/07/13 06:48:36;;;;;;;7.30;6.60;;;20.80;99.90;;;;;;5012541;28;20038;-73
2022/07/13 06:51:03;;;;;;;8.57;7.32;;;21.00;99.90;;;;;;5013757;28;20034;-73
2022/07/13 06:53:28;;;;;;;9.07;6.93;;;21.00;99.90;;;;;;5014050;28;20049;-73
2022/07/13 06:55:54;;;;;;;8.00;6.75;;;21.20;99.90;;;;;;5013783;28;20045;-73
2022/07/13 06:58:21;;;;;;;7.80;7.05;;;21.40;99.90;;;;;;5013600;28;20034;-73
2022/07/13 07:00:47;;;;;;;8.77;7.55;;;21.60;99.90;;;;;;5011864;28;20034;-73
2022/07/13 07:03:12;;;;;;;9.88;7.82;;;21.80;99.90;;;;;;5012805;28;20044;-73
2022/07/13 07:05:38;;;;;;;10.20;8.18;;;21.90;99.90;;;;;;5012219;28;20559;-74
2022/07/13 07:08:04;;;;;;;11.00;7.45;;;22.00;99.90;;;;;;5011511;28;20037;-73
2022/07/13 07:10:29;;;;;;;11.25;7.88;;;22.50;99.90;;;;;;5011303;28;20065;-74
2022/07/13 07:12:55;;;;;;;11.32;8.40;;;22.70;99.90;;;;;;5011853;28;20046;-73
2022/07/13 07:15:21;;;;;;;11.65;8.68;;;22.80;99.90;;;;;;5012296;28;20434;-73
2022/07/13 07:17:47;;;;;;;10.05;8.45;;;23.00;99.90;;;;;;4995526;28;20037;-73
2022/07/13 07:20:14;;;;;;;10.90;9.77;;;23.10;99.90;;;;;;5011719;28;20053;-73
2022/07/13 07:22:39;;;;;;;9.90;8.85;;;23.10;99.90;;;;;;5011650;28;20084;-73
2022/07/13 07:25:07;;;;;;;12.55;8.65;;;23.20;99.90;;;;;;5011853;28;20061;-73
2022/07/13 07:27:32;;;;;;;11.25;8.10;;;23.60;99.90;;;;;;5011781;28;20100;-74
2022/07/13 07:29:58;;;;;;;12.20;8.75;;;24.00;99.90;;;;;;4995067;28;20456;-73
2022/07/13 07:32:24;;;;;;;10.88;8.85;;;24.00;99.90;;;;;;5012893;28;20090;-73
2022/07/13 07:34:50;;;;;;;9.95;8.80;;;24.10;99.90;;;;;;5011667;28;20125;-73
2022/07/13 07:37:15;;;;;;;10.70;9.30;;;23.90;99.90;;;;;;5011579;28;20415;-73
2022/07/13 07:39:41;;;;;;;11.88;8.85;;;24.20;99.90;;;;;;5011564;28;20095;-73
2022/07/13 07:42:07;;;;;;;10.52;8.35;;;24.40;99.90;;;;;;5011577;28;20049;-73
2022/07/13 07:44:32;;;;;;;12.02;8.27;;;24.80;99.90;;;;;;5011534;28;20042;-73
2022/07/13 07:46:58;;;;;;;13.98;9.30;;;25.10;99.90;;;;;;5011436;28;20038;-73
2022/07/13 07:49:24;;;;;;;13.20;9.70;;;25.30;99.90;;;;;;5011243;28;20034;-73
2022/07/13 07:51:50;;;;;;;11.60;8.73;;;25.60;99.90;;;;;;5011339;28;20038;-73
2022/07/13 07:54:15;;;;;;;12.90;10.00;;;25.70;99.90;;;;;;5012765;28;20059;-73
2022/07/13 07:56:41;;;;;;;11.90;9.13;;;26.00;99.90;;;;;;5011254;28;20518;-74
2022/07/13 07:59:07;;;;;;;8.05;7.20;;;26.30;99.90;;;;;;5010943;28;20067;-73
2022/07/13 08:01:32;;;;;;;13.85;8.55;;;26.50;99.90;;;;;;5011976;28;20072;-74
2022/07/13 08:03:58;;;;;;;17.48;9.05;;;26.30;99.90;;;;;;5011677;28;20049;-73
2022/07/13 08:06:23;;;;;;;10.93;9.10;;;26.30;99.80;;;;;;5011635;28;20037;-74
2022/07/13 08:08:49;;;;;;;11.80;8.88;;;26.40;99.50;;;;;;5012311;28;20080;-74
2022/07/13 08:11:17;;;;;;;10.38;8.82;;;26.50;99.30;;;;;;5010706;28;20419;-74
2022/07/13 08:13:44;;;;;;;12.80;7.88;;;26.60;99.50;;;;;;5010915;28;20045;-74
2022/07/13 08:16:10;;;;;;;12.15;7.75;;;26.70;98.80;;;;;;5010850;28;20495;-74
2022/07/13 08:18:36;;;;;;;12.35;6.88;;;26.80;98.80;;;;;;5011018;28;20125;-74
2022/07/13 08:21:02;;;;;;;9.93;6.57;;;27.10;98.30;;;;;;5011629;28;20096;-76
2022/07/13 08:26:11;;;;;;;11.85;7.22;;;27.10;97.40;;;;;;5011332;28;20407;-78
2022/07/13 08:28:37;;;;;;;9.27;7.05;;;27.30;97.30;;;;;;5010527;28;20033;-78
2022/07/13 08:31:02;;;;;;;8.90;6.57;;;27.30;97.00;;;;;;5010505;28;20038;-77
2022/07/13 08:38:56;;;;;;;7.85;5.75;;;27.80;95.90;;;;;;5010594;28;20454;-75
2022/07/13 08:41:23;;;;;;;11.23;6.30;;;27.80;94.90;;;;;;5010343;28;20045;-76
2022/07/13 08:43:48;;;;;;;8.90;6.53;;;28.00;94.10;;;;;;5011081;28;20026;-77
2022/07/13 08:46:14;;;;;;;9.05;6.00;;;28.00;93.90;;;;;;5010721;28;20525;-77
2022/07/13 08:48:43;;;;;;;9.68;5.93;;;28.00;93.50;;;;;;4994436;28;20060;-77
2022/07/13 08:51:09;;;;;;;9.75;5.13;;;28.30;93.90;;;;;;5010200;28;20376;-77
2022/07/13 08:53:35;;;;;;;9.23;4.88;;;28.40;93.80;;;;;;5011473;28;20080;-75
2022/07/13 08:56:00;;;;;;;5.07;4.38;;;28.60;93.50;;;;;;5011931;28;20038;-75
2022/07/13 08:58:26;;;;;;;7.45;4.32;;;28.70;92.60;;;;;;5010508;28;20053;-74
2022/07/13 09:00:52;;;;;;;7.50;4.47;;;28.70;91.00;;;;;;5010210;28;20057;-74
2022/07/13 09:03:17;;;;;;;9.65;4.97;;;29.00;90.80;;;;;;5011570;28;20185;-74
2022/07/13 09:05:43;;;;;;;7.85;5.10;;;29.10;90.50;;;;;;5010516;28;20044;-74
2022/07/13 09:08:10;;;;;;;10.45;5.07;;;29.00;90.50;;;;;;5009907;28;20030;-75
2022/07/13 09:10:53;;;;;;;5.47;4.80;;;29.00;90.50;;;;;;5011321;28;20500;-74
2022/07/13 09:13:44;;;;;;;8.90;4.47;;;28.80;87.60;;;;;;5010350;28;20095;-74
2022/07/13 09:16:16;;;;;;;6.15;3.97;;;29.00;87.00;;;;;;5010646;28;20097;-74
2022/07/13 09:18:43;;;;;;;5.60;3.30;;;29.30;87.70;;;;;;5010305;28;20574;-74
2022/07/13 09:21:09;;;;;;;6.63;3.83;;;29.30;87.00;;;;;;5011426;28;20045;-75
2022/07/13 09:23:34;;;;;;;6.82;2.70;;;29.30;83.40;;;;;;5010425;28;20034;-74
2022/07/13 09:26:00;;;;;;;2.63;2.13;;;29.20;81.70;;;;;;5010242;28;20535;-74
2022/07/13 09:28:26;;;;;;;2.95;1.98;;;29.00;75.50;;;;;;5011282;28;20092;-74
2022/07/13 09:30:51;;;;;;;4.78;2.50;;;29.10;74.40;;;;;;5009587;28;20061;-74
2022/07/13 09:33:36;;;;;;;3.63;2.72;;;29.00;74.60;;;;;;5009850;28;20049;-75
2022/07/13 09:36:28;;;;;;;5.45;2.60;;;29.10;72.50;;;;;;5014430;28;20064;-75
2022/07/13 09:38:54;;;;;;;4.60;2.40;;;28.60;69.60;;;;;;5009413;28;20068;-75
2022/07/13 09:41:24;;;;;;;4.13;2.22;;;28.50;72.30;;;;;;5013196;28;20359;-75
2022/07/13 09:46:54;;;;;;;6.25;2.40;;;28.60;72.10;;;;;;5015199;28;20042;-75
2022/07/13 09:49:44;;;;;;;4.45;2.60;;;28.80;72.00;;;;;;5012806;28;20041;-74
2022/07/13 09:52:12;;;;;;;6.70;2.72;;;28.50;70.40;;;;;;5015072;28;20086;-74
2022/07/13 09:54:41;;;;;;;4.55;2.40;;;28.70;73.10;;;;;;5012647;28;20033;-75
2022/07/13 09:57:13;;;;;;;8.07;3.03;;;28.30;70.70;;;;;;5012750;28;20034;-75
2022/07/13 09:59:43;;;;;;;4.38;2.55;;;28.60;72.40;;;;;;5011435;28;20065;-75
2022/07/13 10:02:09;;;;;;;4.18;2.60;;;28.80;72.80;;;;;;5012787;28;20042;-75
2022/07/13 10:04:35;;;;;;;2.83;1.90;;;28.80;72.30;;;;;;5012663;28;20065;-75
2022/07/13 10:07:05;;;;;;;3.58;2.40;;;28.50;69.00;;;;;;4996701;28;20048;-74
2022/07/13 10:09:32;;;;;;;6.05;2.20;;;28.10;68.40;;;;;;5013990;28;20041;-74
2022/07/13 10:11:58;;;;;;;5.25;2.67;;;28.40;71.00;;;;;;5012845;28;20268;-74
2022/07/13 10:14:26;;;;;;;4.55;2.25;;;28.40;71.60;;;;;;5014597;28;20046;-73
2022/07/13 10:17:02;;;;;;;5.65;2.65;;;28.30;68.00;;;;;;5013352;28;20503;-74
2022/07/13 10:19:29;;;;;;;8.15;4.03;;;28.20;70.10;;;;;;5012846;28;20670;-74
2022/07/13 10:22:00;;;;;;;4.97;3.22;;;28.00;72.20;;;;;;5012992;28;20053;-73
2022/07/13 10:24:27;;;;;;;6.30;3.17;;;27.90;71.90;;;;;;5014312;28;20038;-74
2022/07/13 10:27:25;;;;;;;4.78;3.45;;;27.80;71.90;;;;;;5012990;28;20046;-73
2022/07/13 10:29:56;;;;;;;5.10;3.28;;;27.80;73.30;;;;;;5012590;28;20040;-73
2022/07/13 10:32:23;;;;;;;4.40;2.92;;;27.60;71.90;;;;;;5012811;28;20049;-73
2022/07/13 10:34:54;;;;;;;3.80;2.72;;;27.40;71.50;;;;;;5012736;28;20049;-74
2022/07/13 10:37:20;;;;;;;3.08;2.65;;;27.50;73.30;;;;;;5012999;28;20133;-73
2022/07/13 10:40:08;;;;;;;5.13;2.88;;;27.40;74.00;;;;;;5012388;28;20041;-73
2022/07/13 10:43:01;;;;;;;6.60;3.05;;;27.50;73.10;;;;;;5013953;28;20455;-73
2022/07/13 10:45:33;;;;;;;8.02;2.33;;;27.30;75.10;;;;;;5013180;28;20038;-73
2022/07/13 10:47:59;;;;;;;4.53;2.70;;;27.40;74.70;;;;;;5012409;28;20041;-73
2022/07/13 10:50:36;;;;;;;4.78;2.92;;;27.40;75.40;;;;;;5011537;28;20417;-73
2022/07/13 10:53:02;;;;;;;5.13;2.25;;;27.50;74.80;;;;;;5013065;28;20124;-73
2022/07/13 10:55:33;;;;;;;4.50;2.80;;;27.60;73.10;;;;;;5012346;28;20096;-74
2022/07/13 10:58:02;;;;;;;4.45;2.42;;;27.40;70.20;;;;;;5013611;28;20034;-73
2022/07/13 11:00:43;;;;;;;3.88;2.03;;;27.20;70.30;;;;;;5012343;28;20436;-73
2022/07/13 11:03:26;;;;;;;3.35;2.00;;;27.50;73.20;;;;;;5012020;28;20104;-73
2022/07/13 11:06:05;;;;;;;5.80;2.22;;;27.50;73.70;;;;;;5012558;28;20434;-73
2022/07/13 11:08:31;;;;;;;3.50;2.00;;;27.30;68.90;;;;;;5012319;28;20052;-77
2022/07/13 11:11:18;;;;;;;3.47;1.90;;;27.30;69.90;;;;;;5012578;28;20042;-77
2022/07/13 11:13:46;;;;;;;1.92;1.67;;;27.00;66.90;;;;;;5014396;28;20049;-76
2022/07/13 11:16:49;;;;;;;4.70;2.13;;;27.00;68.20;;;;;;4995687;28;20095;-76
2022/07/13 11:19:15;;;;;;;3.38;1.77;;;27.00;69.60;;;;;;5011801;28;20056;-76
2022/07/13 11:22:03;;;;;;;4.75;2.33;;;27.10;69.10;;;;;;5011654;28;20121;-75
2022/07/13 11:27:22;;;;;;;4.22;2.08;;;27.20;68.40;;;;;;5015137;28;20042;-78
2022/07/13 11:29:57;;;;;;;5.13;2.08;;;27.00;66.90;;;;;;4998216;28;20041;-78
2022/07/13 11:32:25;;;;;;;3.03;1.92;;;26.80;67.50;;;;;;5016051;28;20440;-77
2022/07/13 11:34:52;;;;;;;4.72;2.30;;;26.90;68.80;;;;;;5015500;28;20038;-78
2022/07/13 11:37:25;;;;;;;4.47;2.22;;;26.70;67.40;;;;;;5014847;28;20042;-78
2022/07/13 11:39:51;;;;;;;3.42;2.20;;;26.80;69.10;;;;;;5014877;28;20512;-79
2022/07/13 11:42:21;;;;;;;4.78;2.05;;;26.80;68.40;;;;;;5015356;28;20045;-78
2022/07/13 11:44:49;;;;;;;2.92;1.83;;;26.90;68.80;;;;;;5015190;28;20061;-78
2022/07/13 11:47:15;;;;;;;4.32;2.40;;;26.80;68.20;;;;;;5015915;28;20045;-78
2022/07/13 11:49:46;;;;;;;3.05;2.05;;;26.30;68.20;;;;;;5014856;28;20046;-78
2022/07/13 11:52:25;;;;;;;5.75;2.60;;;26.30;71.60;;;;;;5015125;28;20042;-78
2022/07/13 11:55:05;;;;;;;3.83;2.83;;;26.20;72.50;;;;;;5015739;28;20064;-78
2022/07/13 11:57:32;;;;;;;3.45;2.40;;;26.20;71.40;;;;;;5014835;28;20054;-79
2022/07/13 12:00:05;;;;;;;3.65;2.10;;;26.00;69.80;;;;;;5014457;28;20136;-79
2022/07/13 12:02:30;;;;;;;5.90;2.17;;;26.00;70.10;;;;;;5014944;28;20495;-77
2022/07/13 12:04:56;;;;;;;6.63;2.38;;;25.90;71.60;;;;;;5014628;28;20100;-79
2022/07/13 12:07:25;;;;;;;5.40;2.72;;;25.80;74.10;;;;;;5014382;28;20442;-79
2022/07/13 12:09:56;;;;;;;8.70;2.80;;;25.90;78.40;;;;;;5014788;28;20034;-78
2022/07/13 12:12:24;;;;;;;4.15;2.08;;;25.90;78.50;;;;;;5014759;28;20136;-79
2022/07/13 12:14:52;;;;;;;8.63;2.53;;;25.70;77.40;;;;;;5014881;28;20041;-77
2022/07/13 12:17:18;;;;;;;4.70;2.15;;;25.90;79.00;;;;;;5015615;28;20077;-79
2022/07/13 12:19:44;;;;;;;4.25;2.50;;;25.60;78.10;;;;;;5015134;28;20037;-79
2022/07/13 12:22:10;;;;;;;5.90;2.28;;;25.50;80.70;;;;;;5014318;28;20050;-79
2022/07/13 12:24:42;;;;;;;3.88;2.45;;;25.40;81.40;;;;;;5015517;28;20045;-77
2022/07/13 12:27:07;;;;;;;4.43;2.40;;;25.10;83.40;;;;;;5014797;28;20034;-79
2022/07/13 12:29:34;;;;;;;4.07;2.33;;;25.20;88.30;;;;;;5013571;28;20091;-79
2022/07/13 12:32:01;;;;;;;3.58;2.08;;;25.10;88.40;;;;;;5013655;28;20041;-77
2022/07/13 12:34:27;;;;;;;5.30;2.10;;;24.80;87.80;;;;;;5014308;28;20069;-78
2022/07/13 12:36:53;;;;;;;8.10;2.58;;;25.00;89.60;;;;;;5014016;28;20084;-77
2022/07/13 12:39:20;;;;;;;3.40;1.73;;;24.90;90.40;;;;;;5014132;28;20041;-79
2022/07/13 12:41:55;;;;;;;3.45;2.05;;;25.00;91.00;;;;;;5015070;28;20046;-80
2022/07/13 12:44:28;;;;;;;4.22;2.00;;;24.90;90.90;;;;;;5014373;28;20041;-77
2022/07/13 12:46:55;;;;;;;4.18;2.13;;;24.40;90.80;;;;;;5015369;28;20049;-79
2022/07/13 12:49:38;;;;;;;3.03;1.77;;;24.70;92.60;;;;;;5014769;28;20515;-79
2022/07/13 12:52:11;;;;;;;7.32;2.70;;;24.80;92.70;;;;;;5014490;28;20468;-79
2022/07/13 12:54:47;;;;;;;6.22;2.97;;;24.90;92.80;;;;;;4999084;28;20130;-78
2022/07/13 12:57:34;;;;;;;5.05;2.00;;;24.80;92.20;;;;;;5015023;28;20124;-80
2022/07/13 13:00:15;;;;;;;5.47;2.92;;;24.80;93.40;;;;;;5014081;28;20522;-77
2022/07/13 13:02:40;;;;;;;7.45;2.33;;;24.50;92.70;;;;;;5013733;28;20045;-78